Time;durP1;ratioP1;P1;durP2;ratioP2;P2;SDS_P1;SDS_P2;PMS_P1;PMS_P2;Temp;Humidity;BMP_temperature;BMP_pressure;BME280_temperature;BME280_humidity;BME280_pressure;Samples;Min_cycle;Max_cycle;Signal;HPM_P1;HPM_P2
2023/08/29 00:01:48;;;;;;;;;5.00;5.00;;;;;;;;5034493;28;8832;-59
2023/08/29 00:04:14;;;;;;;;;5.00;5.00;;;;;;;;5037298;28;8949;-59
2023/08/29 00:06:39;;;;;;;;;5.00;5.00;;;;;;;;5036413;28;8835;-58
2023/08/29 00:09:05;;;;;;;;;5.67;4.00;;;;;;;;5035494;28;8804;-59
2023/08/29 00:11:30;;;;;;;;;5.00;5.00;;;;;;;;5035100;28;8832;-59
2023/08/29 00:13:56;;;;;;;;;6.00;5.00;;;;;;;;5035088;28;8804;-58
2023/08/29 00:16:21;;;;;;;;;4.00;4.00;;;;;;;;5016739;28;8783;-58
2023/08/29 00:18:46;;;;;;;;;6.00;4.00;;;;;;;;5033162;28;8826;-60
2023/08/29 00:21:11;;;;;;;;;6.00;5.00;;;;;;;;5020276;28;8808;-58
2023/08/29 00:23:36;;;;;;;;;4.00;3.67;;;;;;;;5036142;28;8840;-60
2023/08/29 00:26:03;;;;;;;;;5.00;5.00;;;;;;;;5035813;28;8882;-60
2023/08/29 00:28:28;;;;;;;;;5.00;5.00;;;;;;;;5036852;28;8867;-59
2023/08/29 00:30:53;;;;;;;;;6.33;5.67;;;;;;;;5035741;28;8949;-59
2023/08/29 00:33:18;;;;;;;;;4.00;4.00;;;;;;;;5036000;28;8808;-59
2023/08/29 00:35:45;;;;;;;;;3.00;3.00;;;;;;;;5034452;28;8818;-59
2023/08/29 00:38:11;;;;;;;;;3.00;3.00;;;;;;;;5013581;28;8812;-59
2023/08/29 00:40:36;;;;;;;;;4.33;4.33;;;;;;;;5036199;28;9204;-59
2023/08/29 00:43:02;;;;;;;;;5.00;4.67;;;;;;;;5033921;28;8824;-59
2023/08/29 00:45:29;;;;;;;;;5.00;4.67;;;;;;;;5032338;28;8892;-59
2023/08/29 00:47:54;;;;;;;;;6.00;6.00;;;;;;;;5034506;28;9084;-59
2023/08/29 00:50:20;;;;;;;;;5.00;4.33;;;;;;;;5033073;28;9127;-59
2023/08/29 00:52:45;;;;;;;;;3.67;3.67;;;;;;;;5032955;28;8816;-58
2023/08/29 00:55:11;;;;;;;;;5.00;5.00;;;;;;;;5033395;28;9523;-58
2023/08/29 00:57:36;;;;;;;;;4.00;4.00;;;;;;;;5034281;28;9365;-58
2023/08/29 01:00:03;;;;;;;;;4.00;4.00;;;;;;;;5033028;28;8832;-58
2023/08/29 01:02:28;;;;;;;;;5.00;5.00;;;;;;;;5033412;28;8813;-58
2023/08/29 01:04:54;;;;;;;;;6.33;6.33;;;;;;;;5025577;28;9081;-58
2023/08/29 01:07:19;;;;;;;;;4.67;4.67;;;;;;;;5033185;28;8841;-58
2023/08/29 01:09:44;;;;;;;;;5.00;5.00;;;;;;;;5032100;28;8861;-58
2023/08/29 01:12:14;;;;;;;;;7.33;7.00;;;;;;;;5033260;28;8878;-59
2023/08/29 01:14:51;;;;;;;;;4.33;4.33;;;;;;;;5033549;28;8799;-59
2023/08/29 01:17:24;;;;;;;;;4.67;4.33;;;;;;;;5032131;28;9020;-59
2023/08/29 01:19:51;;;;;;;;;4.67;4.00;;;;;;;;5030927;28;9557;-58
2023/08/29 01:22:22;;;;;;;;;6.00;6.00;;;;;;;;5033992;28;9861;-59
2023/08/29 01:24:58;;;;;;;;;5.67;4.33;;;;;;;;5032845;28;8931;-59
2023/08/29 01:27:25;;;;;;;;;4.33;4.00;;;;;;;;5036031;28;8951;-60
2023/08/29 01:29:50;;;;;;;;;4.67;4.67;;;;;;;;5019052;28;9127;-59
2023/08/29 01:32:16;;;;;;;;;5.00;5.00;;;;;;;;5034901;28;8987;-59
2023/08/29 01:34:43;;;;;;;;;5.00;5.00;;;;;;;;5037601;28;9567;-58
2023/08/29 01:37:08;;;;;;;;;5.00;4.00;;;;;;;;5039031;28;8791;-58
2023/08/29 01:39:33;;;;;;;;;4.00;4.00;;;;;;;;5037645;28;9748;-58
2023/08/29 01:41:59;;;;;;;;;5.00;5.00;;;;;;;;5037064;28;8834;-58
2023/08/29 01:44:24;;;;;;;;;6.00;5.00;;;;;;;;5037885;28;9733;-59
2023/08/29 01:46:49;;;;;;;;;5.00;4.00;;;;;;;;5038727;28;8853;-59
2023/08/29 01:49:14;;;;;;;;;3.67;3.67;;;;;;;;5036677;28;8829;-58
2023/08/29 01:51:40;;;;;;;;;5.00;5.00;;;;;;;;5039162;28;8813;-58
2023/08/29 01:54:05;;;;;;;;;5.67;3.67;;;;;;;;5037420;28;8851;-58
2023/08/29 01:56:32;;;;;;;;;6.67;6.67;;;;;;;;5020090;28;8919;-59
2023/08/29 01:58:58;;;;;;;;;5.25;5.00;;;;;;;;5036726;28;8818;-59
2023/08/29 02:01:24;;;;;;;;;4.00;4.00;;;;;;;;5038652;28;8817;-59
2023/08/29 02:03:49;;;;;;;;;4.00;4.00;;;;;;;;5036938;28;8909;-59
2023/08/29 02:06:14;;;;;;;;;6.67;6.00;;;;;;;;5038002;28;10127;-58
2023/08/29 02:08:41;;;;;;;;;5.00;4.67;;;;;;;;5037692;28;8798;-60
2023/08/29 02:11:06;;;;;;;;;5.00;5.00;;;;;;;;5038554;28;9548;-59
2023/08/29 02:13:31;;;;;;;;;4.00;4.00;;;;;;;;5037630;28;8890;-60
2023/08/29 02:15:57;;;;;;;;;5.00;5.00;;;;;;;;5021087;28;9757;-60
2023/08/29 02:18:22;;;;;;;;;5.33;5.33;;;;;;;;5036355;28;8807;-60
2023/08/29 02:20:47;;;;;;;;;5.00;5.00;;;;;;;;5037506;28;8990;-60
2023/08/29 02:23:13;;;;;;;;;5.33;5.33;;;;;;;;5037617;28;8833;-59
2023/08/29 02:25:38;;;;;;;;;5.00;5.00;;;;;;;;5036442;28;8876;-59
2023/08/29 02:28:03;;;;;;;;;5.00;5.00;;;;;;;;5036877;28;8813;-60
2023/08/29 02:30:29;;;;;;;;;6.67;6.67;;;;;;;;5038984;28;8817;-60
2023/08/29 02:32:54;;;;;;;;;5.67;5.00;;;;;;;;5037786;28;8847;-59
2023/08/29 02:35:19;;;;;;;;;5.33;5.00;;;;;;;;5038807;28;8803;-58
2023/08/29 02:37:44;;;;;;;;;8.00;6.00;;;;;;;;5035300;28;8874;-59
2023/08/29 02:40:10;;;;;;;;;4.33;4.33;;;;;;;;5031515;28;8824;-59
2023/08/29 02:42:35;;;;;;;;;5.67;5.67;;;;;;;;5038080;28;8842;-59
2023/08/29 02:45:01;;;;;;;;;6.00;6.00;;;;;;;;5037494;28;8842;-58
2023/08/29 02:47:26;;;;;;;;;5.00;5.00;;;;;;;;5036246;28;8915;-59
2023/08/29 02:49:51;;;;;;;;;7.00;6.00;;;;;;;;5023606;28;10128;-58
2023/08/29 02:52:16;;;;;;;;;9.00;9.00;;;;;;;;5038054;28;9581;-59
2023/08/29 02:54:42;;;;;;;;;7.00;6.67;;;;;;;;5038664;28;8803;-59
2023/08/29 02:57:07;;;;;;;;;6.67;5.67;;;;;;;;5014291;28;9235;-59
2023/08/29 02:59:32;;;;;;;;;6.00;5.00;;;;;;;;5004303;28;8859;-59
2023/08/29 03:01:59;;;;;;;;;6.00;5.67;;;;;;;;5036629;28;8889;-58
2023/08/29 03:04:24;;;;;;;;;5.00;4.33;;;;;;;;5037292;28;8938;-59
2023/08/29 03:06:50;;;;;;;;;5.33;5.33;;;;;;;;5037187;28;9527;-60
2023/08/29 03:09:16;;;;;;;;;6.33;5.33;;;;;;;;5035966;28;8773;-59
2023/08/29 03:11:41;;;;;;;;;6.00;6.00;;;;;;;;5034885;28;9183;-59
2023/08/29 03:14:06;;;;;;;;;4.00;4.00;;;;;;;;5034244;28;9607;-60
2023/08/29 03:16:31;;;;;;;;;5.00;5.00;;;;;;;;5035770;28;8822;-58
2023/08/29 03:18:57;;;;;;;;;7.00;6.00;;;;;;;;5034793;28;8828;-59
2023/08/29 03:21:22;;;;;;;;;65.00;51.00;;;;;;;;5036295;28;8795;-59
2023/08/29 03:23:47;;;;;;;;;57.50;45.75;;;;;;;;5036227;28;9006;-59
2023/08/29 03:26:12;;;;;;;;;25.00;22.75;;;;;;;;5036007;28;8801;-59
2023/08/29 03:28:38;;;;;;;;;6.00;6.00;;;;;;;;5036953;28;8827;-59
2023/08/29 03:31:07;;;;;;;;;5.00;5.00;;;;;;;;5038702;28;8919;-59
2023/08/29 03:33:32;;;;;;;;;4.00;3.67;;;;;;;;5038150;28;8784;-59
2023/08/29 03:35:58;;;;;;;;;5.67;5.67;;;;;;;;5036373;28;9380;-59
2023/08/29 03:38:23;;;;;;;;;6.67;6.00;;;;;;;;5037764;28;8779;-60
2023/08/29 03:40:54;;;;;;;;;7.00;6.00;;;;;;;;5037011;28;8808;-59
2023/08/29 03:43:20;;;;;;;;;5.33;5.00;;;;;;;;5031633;28;8776;-59
2023/08/29 03:45:45;;;;;;;;;9.00;8.67;;;;;;;;5036935;28;9375;-59
2023/08/29 03:48:10;;;;;;;;;7.67;7.67;;;;;;;;5035165;28;8824;-59
2023/08/29 03:50:36;;;;;;;;;13.00;11.67;;;;;;;;5036961;28;8789;-59
2023/08/29 03:53:01;;;;;;;;;13.00;12.50;;;;;;;;5014688;28;8853;-60
2023/08/29 03:55:26;;;;;;;;;15.75;14.00;;;;;;;;5036779;28;8814;-59
2023/08/29 03:57:51;;;;;;;;;16.00;15.00;;;;;;;;5027791;28;8881;-58
2023/08/29 04:00:17;;;;;;;;;18.50;15.50;;;;;;;;5035528;28;8791;-59
2023/08/29 04:02:42;;;;;;;;;17.50;16.50;;;;;;;;5014249;28;8859;-58
2023/08/29 04:05:12;;;;;;;;;16.00;15.50;;;;;;;;5033120;28;8835;-58
2023/08/29 04:07:40;;;;;;;;;20.00;17.50;;;;;;;;5033786;28;8775;-59
2023/08/29 04:10:05;;;;;;;;;19.50;15.75;;;;;;;;5032965;28;9732;-59
2023/08/29 04:12:30;;;;;;;;;15.00;14.50;;;;;;;;5010458;28;9894;-59
2023/08/29 04:14:56;;;;;;;;;18.25;15.50;;;;;;;;5033184;28;8835;-59
2023/08/29 04:17:21;;;;;;;;;16.75;15.25;;;;;;;;5033584;28;8937;-59
2023/08/29 04:19:47;;;;;;;;;13.50;13.25;;;;;;;;5031287;28;42491;-59
2023/08/29 04:22:12;;;;;;;;;13.75;13.25;;;;;;;;5036205;28;8954;-59
2023/08/29 04:24:38;;;;;;;;;9.67;9.33;;;;;;;;5035134;28;10470;-59
2023/08/29 04:27:03;;;;;;;;;9.75;9.00;;;;;;;;5036337;28;8837;-59
2023/08/29 04:29:28;;;;;;;;;12.00;11.00;;;;;;;;5036749;28;9004;-59
2023/08/29 04:31:53;;;;;;;;;11.00;10.00;;;;;;;;5037414;28;8836;-59
2023/08/29 04:34:19;;;;;;;;;12.67;12.00;;;;;;;;5036817;28;11508;-59
2023/08/29 04:36:45;;;;;;;;;8.33;8.33;;;;;;;;5037703;28;9709;-59
2023/08/29 04:39:10;;;;;;;;;9.00;8.00;;;;;;;;5035127;28;8798;-59
2023/08/29 04:41:35;;;;;;;;;8.67;8.67;;;;;;;;5034949;28;11412;-59
2023/08/29 04:44:00;;;;;;;;;8.67;8.33;;;;;;;;5036899;28;9018;-59
2023/08/29 04:46:25;;;;;;;;;8.33;8.00;;;;;;;;5023247;28;8785;-59
2023/08/29 04:48:51;;;;;;;;;8.00;7.33;;;;;;;;5035815;28;8802;-59
2023/08/29 04:51:16;;;;;;;;;7.67;7.00;;;;;;;;5036217;28;9702;-59
2023/08/29 04:53:41;;;;;;;;;9.00;8.75;;;;;;;;5036712;28;8792;-59
2023/08/29 04:56:07;;;;;;;;;7.33;7.33;;;;;;;;5036861;28;9778;-59
2023/08/29 04:58:32;;;;;;;;;9.00;9.00;;;;;;;;5032507;28;35570;-59
2023/08/29 05:00:58;;;;;;;;;8.67;8.67;;;;;;;;5035967;28;8911;-59
2023/08/29 05:03:23;;;;;;;;;9.67;9.00;;;;;;;;5040354;28;8810;-60
2023/08/29 05:05:51;;;;;;;;;11.00;9.67;;;;;;;;5039869;28;8828;-60
2023/08/29 05:08:17;;;;;;;;;5.00;5.00;;;;;;;;5037569;28;8821;-60
2023/08/29 05:10:42;;;;;;;;;4.33;4.33;;;;;;;;5033047;28;51204;-60
2023/08/29 05:13:07;;;;;;;;;8.67;8.00;;;;;;;;5039271;28;8943;-60
2023/08/29 05:15:32;;;;;;;;;8.00;8.00;;;;;;;;5039099;28;8935;-60
2023/08/29 05:17:58;;;;;;;;;7.00;7.00;;;;;;;;5038660;28;8791;-60
2023/08/29 05:20:23;;;;;;;;;9.33;8.00;;;;;;;;5039543;28;9478;-60
2023/08/29 05:22:48;;;;;;;;;7.33;7.00;;;;;;;;5037859;28;8816;-60
2023/08/29 05:25:13;;;;;;;;;8.00;8.00;;;;;;;;5040470;28;8856;-64
2023/08/29 05:27:38;;;;;;;;;7.00;7.00;;;;;;;;5027057;28;31934;-60
2023/08/29 05:30:04;;;;;;;;;6.00;6.00;;;;;;;;5039266;28;8824;-60
2023/08/29 05:32:30;;;;;;;;;9.00;7.33;;;;;;;;5038910;28;8979;-60
2023/08/29 05:34:55;;;;;;;;;10.00;8.33;;;;;;;;5038734;28;8824;-60
2023/08/29 05:37:20;;;;;;;;;8.00;7.67;;;;;;;;5039417;28;8795;-60
2023/08/29 05:39:45;;;;;;;;;9.33;8.33;;;;;;;;5039766;28;8812;-60
2023/08/29 05:42:10;;;;;;;;;5.00;5.00;;;;;;;;5013963;28;32886;-60
2023/08/29 05:44:36;;;;;;;;;7.00;7.00;;;;;;;;5015398;28;31994;-59
2023/08/29 05:47:01;;;;;;;;;8.00;7.67;;;;;;;;5015417;28;32183;-60
2023/08/29 05:49:26;;;;;;;;;10.67;9.33;;;;;;;;5018079;28;32091;-59
2023/08/29 05:51:52;;;;;;;;;9.00;9.00;;;;;;;;5016795;28;32665;-60
2023/08/29 05:54:17;;;;;;;;;8.67;6.33;;;;;;;;5018055;28;32253;-59
2023/08/29 05:56:42;;;;;;;;;7.00;7.00;;;;;;;;4994713;28;32200;-59
2023/08/29 05:59:07;;;;;;;;;7.67;7.67;;;;;;;;5017801;28;31964;-59
2023/08/29 06:01:35;;;;;;;;;12.33;8.67;;;;;;;;5008811;28;32786;-59
2023/08/29 06:04:00;;;;;;;;;11.00;8.33;;;;;;;;4995636;28;32153;-59
2023/08/29 06:06:25;;;;;;;;;7.00;6.67;;;;;;;;5016532;28;32085;-60
2023/08/29 06:08:51;;;;;;;;;8.67;8.00;;;;;;;;5015779;28;32288;-59
2023/08/29 06:11:16;;;;;;;;;8.33;8.33;;;;;;;;5016826;28;32174;-59
2023/08/29 06:13:44;;;;;;;;;8.67;8.67;;;;;;;;5006899;28;50473;-59
2023/08/29 06:16:09;;;;;;;;;7.00;6.67;;;;;;;;5025035;28;32088;-59
2023/08/29 06:18:35;;;;;;;;;8.00;8.00;;;;;;;;5016865;28;32136;-59
2023/08/29 06:21:00;;;;;;;;;9.00;8.33;;;;;;;;5016194;28;32455;-59
2023/08/29 06:23:25;;;;;;;;;7.67;7.67;;;;;;;;5015790;28;39168;-61
2023/08/29 06:25:52;;;;;;;;;9.33;9.33;;;;;;;;4998986;28;32336;-59
2023/08/29 06:28:17;;;;;;;;;10.33;9.67;;;;;;;;5014959;28;32146;-60
2023/08/29 06:30:42;;;;;;;;;11.67;11.33;;;;;;;;5014979;28;32482;-58
2023/08/29 06:33:07;;;;;;;;;11.00;10.67;;;;;;;;5016552;28;32001;-59
2023/08/29 06:35:38;;;;;;;;;9.67;8.33;;;;;;;;5015020;28;32420;-60
2023/08/29 06:38:04;;;;;;;;;9.67;8.67;;;;;;;;5014617;28;32026;-59
2023/08/29 06:40:29;;;;;;;;;12.33;9.33;;;;;;;;5014959;28;32053;-59
2023/08/29 06:42:54;;;;;;;;;8.00;7.00;;;;;;;;5015697;28;32212;-59
2023/08/29 06:45:20;;;;;;;;;10.00;10.00;;;;;;;;5014935;28;32122;-61
2023/08/29 06:47:45;;;;;;;;;8.00;8.00;;;;;;;;5016223;28;32003;-59
2023/08/29 06:50:10;;;;;;;;;11.00;10.00;;;;;;;;4997189;28;32144;-59
2023/08/29 06:52:36;;;;;;;;;9.67;9.67;;;;;;;;5015792;28;32088;-59
2023/08/29 06:55:02;;;;;;;;;8.00;7.33;;;;;;;;5017185;28;33140;-59
2023/08/29 06:57:27;;;;;;;;;9.00;9.00;;;;;;;;5015042;28;32003;-59
2023/08/29 06:59:52;;;;;;;;;8.00;8.00;;;;;;;;5015027;28;34475;-58
2023/08/29 07:02:18;;;;;;;;;8.33;7.67;;;;;;;;5014109;28;32123;-59
2023/08/29 07:04:43;;;;;;;;;6.00;6.00;;;;;;;;5022842;28;31439;-60
2023/08/29 07:07:08;;;;;;;;;6.67;6.67;;;;;;;;5014558;28;32883;-59
2023/08/29 07:09:34;;;;;;;;;9.00;8.00;;;;;;;;5024644;28;51222;-60
2023/08/29 07:12:00;;;;;;;;;8.67;6.67;;;;;;;;5036640;28;8771;-59
2023/08/29 07:14:25;;;;;;;;;8.00;7.00;;;;;;;;5035831;28;8915;-60
2023/08/29 07:16:50;;;;;;;;;8.00;8.00;;;;;;;;5035899;28;8801;-59
2023/08/29 07:19:15;;;;;;;;;12.67;11.00;;;;;;;;5036098;28;21071;-59
2023/08/29 07:21:41;;;;;;;;;12.67;12.67;;;;;;;;5014108;28;9953;-60
2023/08/29 07:24:06;;;;;;;;;8.33;7.33;;;;;;;;5028857;28;51104;-58
2023/08/29 07:26:31;;;;;;;;;8.33;6.67;;;;;;;;4997942;28;51091;-60
2023/08/29 07:28:56;;;;;;;;;6.00;6.00;;;;;;;;5012814;28;31973;-59
2023/08/29 07:31:22;;;;;;;;;8.00;7.00;;;;;;;;5012948;28;32051;-58
2023/08/29 07:33:47;;;;;;;;;7.67;7.33;;;;;;;;5012730;28;34380;-59
2023/08/29 07:36:12;;;;;;;;;6.67;6.67;;;;;;;;5013621;28;32105;-58
2023/08/29 07:38:38;;;;;;;;;7.33;6.33;;;;;;;;5012908;28;32872;-59
2023/08/29 07:41:03;;;;;;;;;8.33;8.00;;;;;;;;5014042;28;32050;-59
2023/08/29 07:43:28;;;;;;;;;9.67;9.00;;;;;;;;5012523;28;31997;-59
2023/08/29 07:45:53;;;;;;;;;7.67;7.00;;;;;;;;5013319;28;32017;-59
2023/08/29 07:48:19;;;;;;;;;6.33;6.33;;;;;;;;5012851;28;32147;-59
2023/08/29 07:50:44;;;;;;;;;9.00;8.00;;;;;;;;5013888;28;32092;-59
2023/08/29 07:53:09;;;;;;;;;9.67;7.67;;;;;;;;5013164;28;32009;-59
2023/08/29 07:55:35;;;;;;;;;6.67;6.67;;;;;;;;5014919;28;32110;-59
2023/08/29 07:58:01;;;;;;;;;6.00;6.00;;;;;;;;5013060;28;33906;-58
2023/08/29 08:00:28;;;;;;;;;7.67;7.67;;;;;;;;5013784;28;32054;-59
2023/08/29 08:02:53;;;;;;;;;5.00;5.00;;;;;;;;5012866;28;32305;-59
2023/08/29 08:05:18;;;;;;;;;4.00;4.00;;;;;;;;5014461;28;32080;-58
2023/08/29 08:07:44;;;;;;;;;5.33;5.33;;;;;;;;5012326;28;32838;-58
2023/08/29 08:10:10;;;;;;;;;5.67;5.67;;;;;;;;5013091;28;34101;-59
2023/08/29 08:12:37;;;;;;;;;5.33;5.33;;;;;;;;5012217;28;32592;-58
2023/08/29 08:15:04;;;;;;;;;7.33;6.33;;;;;;;;5013063;28;32050;-58
2023/08/29 08:17:29;;;;;;;;;5.67;5.67;;;;;;;;5010994;28;32064;-58
2023/08/29 08:19:55;;;;;;;;;5.00;5.00;;;;;;;;5010778;28;31965;-58
2023/08/29 08:22:20;;;;;;;;;6.67;6.33;;;;;;;;5014438;28;32124;-60
2023/08/29 08:24:45;;;;;;;;;5.67;5.67;;;;;;;;5023726;28;31966;-58
2023/08/29 08:27:10;;;;;;;;;5.00;5.00;;;;;;;;5034976;28;8947;-58
2023/08/29 08:29:36;;;;;;;;;6.00;6.00;;;;;;;;5021053;28;32195;-58
2023/08/29 08:32:01;;;;;;;;;8.00;7.00;;;;;;;;5012621;28;32179;-58
2023/08/29 08:34:26;;;;;;;;;7.00;6.00;;;;;;;;5024357;28;31997;-58
2023/08/29 08:36:51;;;;;;;;;7.00;6.67;;;;;;;;5013567;28;32040;-58
2023/08/29 08:39:17;;;;;;;;;6.67;6.67;;;;;;;;5023035;28;34217;-58
2023/08/29 08:41:42;;;;;;;;;7.00;7.00;;;;;;;;5033453;28;8797;-58
2023/08/29 08:44:11;;;;;;;;;7.00;7.00;;;;;;;;5033593;28;8955;-58
2023/08/29 08:46:37;;;;;;;;;5.25;5.25;;;;;;;;5030982;28;32097;-58
2023/08/29 08:49:03;;;;;;;;;5.00;5.00;;;;;;;;5033501;28;8785;-58
2023/08/29 08:51:30;;;;;;;;;6.00;5.00;;;;;;;;5033468;28;9594;-59
2023/08/29 08:53:55;;;;;;;;;5.50;4.50;;;;;;;;5023356;28;8804;-60
2023/08/29 08:56:21;;;;;;;;;3.00;2.67;;;;;;;;5031804;28;8832;-60
2023/08/29 08:58:46;;;;;;;;;3.00;3.00;;;;;;;;5033263;28;8841;-58
2023/08/29 09:01:12;;;;;;;;;3.00;2.67;;;;;;;;5030923;28;38430;-59
2023/08/29 09:03:38;;;;;;;;;4.00;3.67;;;;;;;;5033345;28;9324;-58
2023/08/29 09:06:04;;;;;;;;;4.00;4.00;;;;;;;;5031661;28;8824;-59
2023/08/29 09:08:31;;;;;;;;;5.00;5.00;;;;;;;;5032158;28;8815;-60
2023/08/29 09:10:59;;;;;;;;;6.50;5.50;;;;;;;;5032537;28;8829;-60
2023/08/29 09:13:24;;;;;;;;;4.75;4.00;;;;;;;;5033801;28;8789;-60
2023/08/29 09:15:49;;;;;;;;;5.00;5.00;;;;;;;;5031779;28;8830;-60
2023/08/29 09:18:22;;;;;;;;;4.33;3.33;;;;;;;;5031711;28;8836;-59
2023/08/29 09:20:50;;;;;;;;;3.50;3.00;;;;;;;;5034152;28;8774;-60
2023/08/29 09:23:22;;;;;;;;;2.25;2.25;;;;;;;;5033500;28;8779;-60
2023/08/29 09:25:57;;;;;;;;;3.25;3.25;;;;;;;;5032781;28;8820;-60
2023/08/29 09:28:25;;;;;;;;;4.00;3.75;;;;;;;;5032216;28;9627;-60
2023/08/29 09:30:51;;;;;;;;;4.00;4.00;;;;;;;;5032611;28;8881;-58
2023/08/29 09:33:19;;;;;;;;;4.00;4.00;;;;;;;;5033279;28;8820;-58
2023/08/29 09:35:44;;;;;;;;;4.00;3.50;;;;;;;;5033718;28;11436;-58
2023/08/29 09:38:10;;;;;;;;;2.33;2.33;;;;;;;;5032946;28;8819;-59
2023/08/29 09:40:44;;;;;;;;;3.00;3.00;;;;;;;;5031887;28;8833;-58
2023/08/29 09:43:09;;;;;;;;;4.00;4.00;;;;;;;;5032066;28;8763;-58
2023/08/29 09:45:37;;;;;;;;;5.00;4.67;;;;;;;;5033245;28;8895;-59
2023/08/29 09:48:03;;;;;;;;;5.00;5.00;;;;;;;;5034597;28;9247;-59
2023/08/29 09:50:28;;;;;;;;;4.67;4.00;;;;;;;;5034849;28;8875;-58
2023/08/29 09:52:56;;;;;;;;;4.67;4.67;;;;;;;;5035915;28;8789;-58
2023/08/29 09:55:22;;;;;;;;;5.25;4.75;;;;;;;;5034840;28;8799;-59
2023/08/29 09:57:50;;;;;;;;;3.50;2.75;;;;;;;;5035553;28;8757;-58
2023/08/29 10:00:16;;;;;;;;;3.50;3.00;;;;;;;;5035019;28;9537;-59
2023/08/29 10:02:43;;;;;;;;;2.50;2.00;;;;;;;;5035757;28;9876;-59
2023/08/29 10:05:09;;;;;;;;;3.50;3.00;;;;;;;;5031100;28;31443;-60
2023/08/29 10:07:39;;;;;;;;;0.00;0.00;;;;;;;;5037151;28;8793;-59
2023/08/29 10:10:06;;;;;;;;;2.00;2.00;;;;;;;;5036009;28;8780;-62
2023/08/29 10:12:32;;;;;;;;;4.75;4.75;;;;;;;;5035774;28;8811;-59
2023/08/29 10:14:58;;;;;;;;;5.00;5.00;;;;;;;;5035491;28;8804;-58
2023/08/29 10:17:24;;;;;;;;;4.00;4.00;;;;;;;;5036091;28;8851;-59
2023/08/29 10:19:50;;;;;;;;;3.25;3.25;;;;;;;;5032150;28;8802;-58
2023/08/29 10:22:16;;;;;;;;;3.75;3.75;;;;;;;;5035840;28;8787;-59
2023/08/29 10:24:43;;;;;;;;;2.00;2.00;;;;;;;;5036002;28;8886;-60
2023/08/29 10:27:10;;;;;;;;;5.00;4.25;;;;;;;;5035118;28;8790;-59
2023/08/29 10:29:37;;;;;;;;;3.75;2.75;;;;;;;;5035563;28;9839;-59
2023/08/29 10:32:03;;;;;;;;;6.67;6.00;;;;;;;;5024498;28;8804;-59
2023/08/29 10:34:30;;;;;;;;;5.25;5.25;;;;;;;;5035046;28;8975;-59
2023/08/29 10:36:56;;;;;;;;;5.25;5.25;;;;;;;;5035097;28;8807;-59
2023/08/29 10:39:22;;;;;;;;;2.25;2.25;;;;;;;;5036281;28;9544;-59
2023/08/29 10:41:48;;;;;;;;;4.00;4.00;;;;;;;;5035381;28;8913;-59
2023/08/29 10:44:28;;;;;;;;;4.00;4.00;;;;;;;;5035224;28;8854;-58
2023/08/29 10:46:54;;;;;;;;;8.00;7.00;;;;;;;;5033289;28;9296;-59
2023/08/29 10:49:22;;;;;;;;;6.00;6.00;;;;;;;;5035571;28;9608;-59
2023/08/29 10:52:07;;;;;;;;;4.00;3.50;;;;;;;;5018068;28;8789;-59
2023/08/29 10:54:32;;;;;;;;;5.00;4.50;;;;;;;;5034273;28;8784;-59
2023/08/29 10:56:57;;;;;;;;;5.00;5.00;;;;;;;;5035442;28;8839;-59
2023/08/29 10:59:34;;;;;;;;;5.33;5.00;;;;;;;;5034285;28;8778;-59
2023/08/29 11:02:18;;;;;;;;;4.00;4.00;;;;;;;;5025010;28;8880;-59
2023/08/29 11:04:44;;;;;;;;;6.50;5.50;;;;;;;;5034342;28;8912;-59
2023/08/29 11:07:20;;;;;;;;;7.67;7.00;;;;;;;;5024201;28;9672;-60
2023/08/29 11:09:46;;;;;;;;;5.33;5.33;;;;;;;;5032725;28;9046;-59
2023/08/29 11:12:14;;;;;;;;;5.00;4.00;;;;;;;;5035628;28;8945;-59
2023/08/29 11:14:51;;;;;;;;;7.00;7.00;;;;;;;;5018012;28;8813;-59
2023/08/29 11:17:23;;;;;;;;;15.33;15.00;;;;;;;;5034265;28;8824;-58
2023/08/29 11:19:51;;;;;;;;;8.00;8.00;;;;;;;;5033706;28;9270;-64
2023/08/29 11:22:16;;;;;;;;;10.00;8.33;;;;;;;;5035072;28;9877;-63
2023/08/29 11:24:41;;;;;;;;;7.00;7.00;;;;;;;;5036645;28;9316;-69
2023/08/29 11:27:07;;;;;;;;;8.00;8.00;;;;;;;;5034591;28;8847;-69
2023/08/29 11:29:36;;;;;;;;;5.33;5.33;;;;;;;;5035035;28;8779;-69
2023/08/29 11:32:01;;;;;;;;;7.00;7.00;;;;;;;;5023032;28;8810;-67
2023/08/29 11:34:26;;;;;;;;;8.33;7.00;;;;;;;;5032516;28;9388;-70
2023/08/29 11:36:52;;;;;;;;;6.67;6.33;;;;;;;;5018642;28;9650;-70
2023/08/29 11:39:21;;;;;;;;;8.00;7.67;;;;;;;;5033429;28;8800;-71
2023/08/29 11:41:46;;;;;;;;;4.67;4.67;;;;;;;;5034688;28;8882;-69
2023/08/29 11:44:12;;;;;;;;;8.67;8.00;;;;;;;;5034166;28;9094;-69
2023/08/29 11:46:37;;;;;;;;;8.00;7.67;;;;;;;;5033730;28;8806;-69
2023/08/29 11:49:13;;;;;;;;;8.00;7.33;;;;;;;;5015884;28;8794;-69
2023/08/29 11:51:39;;;;;;;;;8.00;7.00;;;;;;;;5028477;28;8803;-69
2023/08/29 11:54:04;;;;;;;;;9.00;8.33;;;;;;;;5011825;28;9980;-69
2023/08/29 11:56:29;;;;;;;;;5.33;5.33;;;;;;;;5034083;28;8809;-69
2023/08/29 11:58:56;;;;;;;;;6.00;6.00;;;;;;;;5034209;28;9011;-70
2023/08/29 12:01:22;;;;;;;;;6.67;6.67;;;;;;;;5017270;28;8804;-70
2023/08/29 12:03:49;;;;;;;;;6.00;6.00;;;;;;;;5034472;28;9750;-70
2023/08/29 12:06:14;;;;;;;;;15.67;15.00;;;;;;;;5018479;28;8824;-71
2023/08/29 12:08:40;;;;;;;;;5.33;5.33;;;;;;;;5033967;28;9471;-70
2023/08/29 12:11:06;;;;;;;;;11.00;10.00;;;;;;;;5031334;28;8902;-70
2023/08/29 12:13:32;;;;;;;;;10.00;10.00;;;;;;;;5033946;28;10143;-69
2023/08/29 12:15:57;;;;;;;;;7.00;6.67;;;;;;;;5028674;28;32027;-69
2023/08/29 12:18:23;;;;;;;;;9.33;8.00;;;;;;;;5011162;28;33427;-69
2023/08/29 12:20:49;;;;;;;;;8.00;8.00;;;;;;;;5012975;28;32961;-69
2023/08/29 12:23:23;;;;;;;;;12.33;12.33;;;;;;;;5012515;28;33851;-69
2023/08/29 12:25:48;;;;;;;;;7.33;6.00;;;;;;;;5017388;28;32029;-70
2023/08/29 12:28:13;;;;;;;;;6.00;6.00;;;;;;;;5021265;28;42426;-69
2023/08/29 12:30:38;;;;;;;;;7.33;6.00;;;;;;;;5012213;28;32449;-69
2023/08/29 12:33:04;;;;;;;;;7.00;6.00;;;;;;;;4989728;28;32022;-70
2023/08/29 12:35:29;;;;;;;;;7.67;7.67;;;;;;;;5020665;28;31992;-69
2023/08/29 12:37:55;;;;;;;;;6.00;6.00;;;;;;;;5011542;28;31996;-69
2023/08/29 12:40:20;;;;;;;;;5.00;5.00;;;;;;;;4997151;28;45468;-69
2023/08/29 12:42:47;;;;;;;;;6.00;5.00;;;;;;;;5011459;28;32752;-68
2023/08/29 12:45:14;;;;;;;;;3.00;3.00;;;;;;;;5012285;28;31954;-69
2023/08/29 12:47:40;;;;;;;;;3.67;3.00;;;;;;;;4988538;28;32068;-69
2023/08/29 12:50:05;;;;;;;;;6.00;5.67;;;;;;;;5011147;28;32052;-68
2023/08/29 12:52:30;;;;;;;;;5.00;4.33;;;;;;;;5012896;28;32771;-69
2023/08/29 12:54:56;;;;;;;;;7.00;6.67;;;;;;;;5027569;28;31510;-70
2023/08/29 12:57:21;;;;;;;;;8.33;7.33;;;;;;;;5015497;28;32025;-70
2023/08/29 12:59:47;;;;;;;;;5.33;5.33;;;;;;;;5001233;28;36429;-70
2023/08/29 13:02:12;;;;;;;;;4.67;4.00;;;;;;;;5033609;28;31983;-69
2023/08/29 13:04:37;;;;;;;;;5.00;4.67;;;;;;;;5033086;28;11511;-71
2023/08/29 13:07:03;;;;;;;;;7.33;7.00;;;;;;;;5034296;28;8820;-70
2023/08/29 13:09:28;;;;;;;;;6.00;5.00;;;;;;;;5033387;28;8870;-70
2023/08/29 13:11:53;;;;;;;;;2.00;2.00;;;;;;;;5032457;28;8819;-70
2023/08/29 13:14:18;;;;;;;;;5.00;4.67;;;;;;;;5032927;28;9694;-70
2023/08/29 13:16:44;;;;;;;;;5.33;5.00;;;;;;;;5033313;28;10322;-72
2023/08/29 13:19:10;;;;;;;;;3.00;3.00;;;;;;;;5018618;28;8843;-69
2023/08/29 13:21:36;;;;;;;;;5.00;5.00;;;;;;;;5033781;28;8969;-71
2023/08/29 13:24:02;;;;;;;;;6.00;4.67;;;;;;;;5028212;28;32120;-69
2023/08/29 13:26:27;;;;;;;;;4.00;4.00;;;;;;;;5021831;28;42461;-69
2023/08/29 13:28:53;;;;;;;;;6.33;6.00;;;;;;;;5000027;28;52210;-69
2023/08/29 13:31:19;;;;;;;;;5.00;4.00;;;;;;;;5009026;28;52891;-68
2023/08/29 13:33:45;;;;;;;;;4.00;4.00;;;;;;;;4982777;28;51257;-68
2023/08/29 13:36:11;;;;;;;;;5.00;5.00;;;;;;;;5010964;28;51295;-69
2023/08/29 13:38:36;;;;;;;;;5.00;5.00;;;;;;;;5035013;28;9534;-69
2023/08/29 13:41:01;;;;;;;;;3.00;3.00;;;;;;;;5036564;28;10117;-69
2023/08/29 13:43:27;;;;;;;;;3.00;2.00;;;;;;;;5035723;28;8811;-69
2023/08/29 13:45:52;;;;;;;;;5.33;5.00;;;;;;;;5035942;28;9616;-69
2023/08/29 13:48:17;;;;;;;;;4.67;4.00;;;;;;;;5014759;28;9514;-69
2023/08/29 13:50:43;;;;;;;;;4.33;4.00;;;;;;;;5036323;28;10627;-70
2023/08/29 13:53:09;;;;;;;;;4.00;4.00;;;;;;;;5019983;28;8802;-69
2023/08/29 13:55:35;;;;;;;;;3.67;3.67;;;;;;;;5036988;28;8805;-69
2023/08/29 13:58:00;;;;;;;;;4.33;4.00;;;;;;;;5035183;28;8950;-69
2023/08/29 14:00:26;;;;;;;;;2.00;2.00;;;;;;;;5025277;28;8938;-69
2023/08/29 14:02:52;;;;;;;;;4.25;3.50;;;;;;;;5018445;28;8774;-69
2023/08/29 14:05:17;;;;;;;;;2.67;2.67;;;;;;;;5035851;28;9457;-69
2023/08/29 14:07:43;;;;;;;;;4.33;4.00;;;;;;;;5035091;28;8900;-69
2023/08/29 14:10:08;;;;;;;;;4.67;4.67;;;;;;;;5012390;28;9529;-69
2023/08/29 14:12:34;;;;;;;;;3.00;3.00;;;;;;;;5035277;28;8908;-70
2023/08/29 14:14:59;;;;;;;;;8.67;8.67;;;;;;;;5034305;28;8802;-70
2023/08/29 14:17:24;;;;;;;;;4.67;4.00;;;;;;;;5036635;28;9548;-68
2023/08/29 14:19:49;;;;;;;;;5.00;4.00;;;;;;;;5015812;28;8912;-69
2023/08/29 14:22:15;;;;;;;;;4.00;4.00;;;;;;;;5038944;28;8897;-69
2023/08/29 14:24:40;;;;;;;;;4.00;3.00;;;;;;;;5036889;28;8844;-69
2023/08/29 14:27:05;;;;;;;;;3.00;3.00;;;;;;;;5019680;28;8804;-69
2023/08/29 14:29:31;;;;;;;;;5.00;5.00;;;;;;;;5037925;28;8867;-70
2023/08/29 14:31:56;;;;;;;;;4.00;4.00;;;;;;;;5035619;28;9531;-69
2023/08/29 14:34:21;;;;;;;;;4.00;3.67;;;;;;;;5033717;28;8826;-69
2023/08/29 14:36:47;;;;;;;;;5.00;5.00;;;;;;;;5038201;28;8800;-70
2023/08/29 14:39:12;;;;;;;;;6.00;6.00;;;;;;;;5036319;28;8848;-70
2023/08/29 14:41:40;;;;;;;;;4.00;4.00;;;;;;;;5036888;28;8859;-70
2023/08/29 14:44:05;;;;;;;;;3.25;3.00;;;;;;;;5037446;28;8895;-70